Portada
METAR-TAF:

METAR-TAF

Aeropuertos :

Aeropuerto Internacional Amílcar Cabral

Sal, Cabo Verde

latitud: 16-44N, longitud: 022-57W, altitud: 54 m

Observación

El informe se hizo hace 45 minutos, a las 04:00 UTC
Viento 7 kt del norte
Temperatura 20°C
Humedad 88%
Presión 1014 hPa
Visibilidad 10 km o más
Escasas nubes a una altura de 1400 ft

METAR: GVAC 250400Z 35007KT 9999 FEW014 20/18 Q1014 NOSIG

Hora: 03:45 (04:45 UTC)

Pronóstico

El informe se hizo hace 5 horas y 45 minutos, a las 23:00 UTC
Pronóstico válido del 25 a las 00 UTC al 26 a las 06 UTC
Viento 12 kt del norte-noreste
Visibilidad 10 km o más
Nubes dispersas a una altura de 1400 ft
Temporalmente
del 25 a las 00 UTC al 25 a las 08 UTC
Cielo nuboso a una altura de 1400 ft

TAF: GVAC 242300Z 2500/2606 03012KT 9999 SCT014 TEMPO 2500/2508 BKN014

Observaciones y pronósticos meteorológicos de más de 4000 aeropuertos (mensajes METAR y TAF).

Los puntos amarillos y rojos representan las estaciones disponibles.

Ponga el ratón en el punto deseado para ver el nombre de la estación.

Haga clic para ver las observaciones y los pronósticos meteorológicos.

Para cambiar el mapa : haga clic en los botones verdes con una cruz de color negro para hacer un zoom, en el botón verde con un guión para alejar o en las flechas verdes para mapas adyacentes.


METAR-TAF: